sensor_id;sensor_type;location;lat;lon;timestamp;pressure;altitude;pressure_sealevel;temperature;humidity
57048;BME280;42934;54.294;18.598;2023-07-20T00:01:21;100127.09;;;13.92;78.98
57048;BME280;42934;54.294;18.598;2023-07-20T00:03:50;100126.16;;;14.09;78.55
57048;BME280;42934;54.294;18.598;2023-07-20T00:06:24;100122.75;;;14.07;78.21
57048;BME280;42934;54.294;18.598;2023-07-20T00:08:55;100119.94;;;14.10;78.36
57048;BME280;42934;54.294;18.598;2023-07-20T00:11:25;100125.22;;;14.10;78.37
57048;BME280;42934;54.294;18.598;2023-07-20T00:13:56;100112.84;;;14.11;78.72
57048;BME280;42934;54.294;18.598;2023-07-20T00:16:25;100113.88;;;14.08;78.75
57048;BME280;42934;54.294;18.598;2023-07-20T00:18:54;100114.91;;;14.05;79.01
57048;BME280;42934;54.294;18.598;2023-07-20T00:21:23;100116.94;;;13.84;79.77
57048;BME280;42934;54.294;18.598;2023-07-20T00:23:52;100116.44;;;13.78;80.19
57048;BME280;42934;54.294;18.598;2023-07-20T00:26:22;100117.03;;;13.83;79.76
57048;BME280;42934;54.294;18.598;2023-07-20T00:28:51;100121.94;;;13.73;79.66
57048;BME280;42934;54.294;18.598;2023-07-20T00:31:22;100117.78;;;13.85;80.08
57048;BME280;42934;54.294;18.598;2023-07-20T00:33:51;100120.00;;;13.93;79.09
57048;BME280;42934;54.294;18.598;2023-07-20T00:36:20;100121.19;;;14.03;78.39
57048;BME280;42934;54.294;18.598;2023-07-20T00:38:49;100116.59;;;13.91;79.03
57048;BME280;42934;54.294;18.598;2023-07-20T00:41:19;100113.53;;;13.82;79.30
57048;BME280;42934;54.294;18.598;2023-07-20T00:43:48;100112.16;;;13.75;79.87
57048;BME280;42934;54.294;18.598;2023-07-20T00:46:17;100123.09;;;14.01;78.92
57048;BME280;42934;54.294;18.598;2023-07-20T00:48:48;100110.81;;;13.84;79.62
57048;BME280;42934;54.294;18.598;2023-07-20T00:51:18;100123.16;;;13.83;79.52
57048;BME280;42934;54.294;18.598;2023-07-20T00:53:46;100131.31;;;13.79;79.99
57048;BME280;42934;54.294;18.598;2023-07-20T00:56:16;100128.00;;;13.75;80.19
57048;BME280;42934;54.294;18.598;2023-07-20T00:58:45;100131.56;;;13.74;80.73
57048;BME280;42934;54.294;18.598;2023-07-20T01:01:15;100126.91;;;13.95;79.85
57048;BME280;42934;54.294;18.598;2023-07-20T01:03:44;100122.63;;;14.08;79.60
57048;BME280;42934;54.294;18.598;2023-07-20T01:06:26;100134.06;;;13.93;80.27
57048;BME280;42934;54.294;18.598;2023-07-20T01:09:01;100136.28;;;14.01;80.08
57048;BME280;42934;54.294;18.598;2023-07-20T01:11:43;100133.03;;;14.12;79.73
57048;BME280;42934;54.294;18.598;2023-07-20T01:14:15;100137.91;;;14.03;80.01
57048;BME280;42934;54.294;18.598;2023-07-20T01:16:45;100138.88;;;13.85;80.81
57048;BME280;42934;54.294;18.598;2023-07-20T01:19:17;100131.31;;;13.79;81.12
57048;BME280;42934;54.294;18.598;2023-07-20T01:21:50;100128.66;;;13.79;81.22
57048;BME280;42934;54.294;18.598;2023-07-20T01:27:33;100125.22;;;14.10;79.89
57048;BME280;42934;54.294;18.598;2023-07-20T01:30:14;100124.38;;;14.09;80.26
57048;BME280;42934;54.294;18.598;2023-07-20T01:32:46;100122.91;;;14.20;79.89
57048;BME280;42934;54.294;18.598;2023-07-20T01:35:16;100128.59;;;14.28;79.40
57048;BME280;42934;54.294;18.598;2023-07-20T01:37:45;100123.06;;;14.17;80.25
57048;BME280;42934;54.294;18.598;2023-07-20T01:40:16;100124.53;;;14.22;79.86
57048;BME280;42934;54.294;18.598;2023-07-20T01:42:46;100127.91;;;14.40;79.45
57048;BME280;42934;54.294;18.598;2023-07-20T01:45:15;100118.38;;;14.53;78.84
57048;BME280;42934;54.294;18.598;2023-07-20T01:47:46;100118.59;;;14.49;78.86
57048;BME280;42934;54.294;18.598;2023-07-20T01:50:15;100121.72;;;14.41;79.19
57048;BME280;42934;54.294;18.598;2023-07-20T01:52:44;100119.31;;;14.52;79.16
57048;BME280;42934;54.294;18.598;2023-07-20T01:55:13;100112.47;;;14.64;78.67
57048;BME280;42934;54.294;18.598;2023-07-20T01:57:43;100116.25;;;14.44;79.06
57048;BME280;42934;54.294;18.598;2023-07-20T02:00:12;100116.84;;;14.34;79.64
57048;BME280;42934;54.294;18.598;2023-07-20T02:02:41;100121.34;;;14.63;78.59
57048;BME280;42934;54.294;18.598;2023-07-20T02:05:12;100116.91;;;14.32;79.30
57048;BME280;42934;54.294;18.598;2023-07-20T02:07:42;100118.00;;;14.44;79.34
57048;BME280;42934;54.294;18.598;2023-07-20T02:10:11;100111.22;;;14.56;78.57
57048;BME280;42934;54.294;18.598;2023-07-20T02:12:40;100112.91;;;14.41;79.06
57048;BME280;42934;54.294;18.598;2023-07-20T02:15:10;100117.63;;;14.51;78.81
57048;BME280;42934;54.294;18.598;2023-07-20T02:17:41;100115.38;;;14.44;79.29
57048;BME280;42934;54.294;18.598;2023-07-20T02:20:10;100121.19;;;14.50;79.08
57048;BME280;42934;54.294;18.598;2023-07-20T02:22:41;100113.34;;;14.65;78.38
57048;BME280;42934;54.294;18.598;2023-07-20T02:25:10;100113.59;;;14.44;78.98
57048;BME280;42934;54.294;18.598;2023-07-20T02:27:39;100111.22;;;14.40;79.68
57048;BME280;42934;54.294;18.598;2023-07-20T02:30:08;100111.72;;;14.46;79.32
57048;BME280;42934;54.294;18.598;2023-07-20T02:32:38;100113.50;;;14.62;78.83
57048;BME280;42934;54.294;18.598;2023-07-20T02:35:07;100104.41;;;14.51;79.05
57048;BME280;42934;54.294;18.598;2023-07-20T02:37:36;100111.28;;;14.38;79.69
57048;BME280;42934;54.294;18.598;2023-07-20T02:40:07;100106.00;;;14.38;79.81
57048;BME280;42934;54.294;18.598;2023-07-20T02:42:37;100106.63;;;14.59;79.12
57048;BME280;42934;54.294;18.598;2023-07-20T02:45:06;100115.88;;;14.66;79.22
57048;BME280;42934;54.294;18.598;2023-07-20T02:47:36;100112.03;;;14.72;79.08
57048;BME280;42934;54.294;18.598;2023-07-20T02:50:06;100110.47;;;14.53;79.68
57048;BME280;42934;54.294;18.598;2023-07-20T02:52:36;100106.81;;;14.56;80.02
57048;BME280;42934;54.294;18.598;2023-07-20T02:55:06;100112.63;;;14.77;79.14
57048;BME280;42934;54.294;18.598;2023-07-20T02:57:36;100108.72;;;14.68;79.24
57048;BME280;42934;54.294;18.598;2023-07-20T03:00:05;100110.94;;;14.90;78.93
57048;BME280;42934;54.294;18.598;2023-07-20T03:02:35;100110.16;;;14.74;79.01
57048;BME280;42934;54.294;18.598;2023-07-20T03:05:05;100109.31;;;14.88;78.80
57048;BME280;42934;54.294;18.598;2023-07-20T03:07:35;100109.63;;;14.67;79.65
57048;BME280;42934;54.294;18.598;2023-07-20T03:10:04;100107.88;;;14.68;79.98
57048;BME280;42934;54.294;18.598;2023-07-20T03:12:36;100107.59;;;14.72;80.23
57048;BME280;42934;54.294;18.598;2023-07-20T03:15:06;100104.50;;;14.80;79.58
57048;BME280;42934;54.294;18.598;2023-07-20T03:17:35;100110.19;;;14.88;79.33
57048;BME280;42934;54.294;18.598;2023-07-20T03:20:05;100115.13;;;14.94;79.51
57048;BME280;42934;54.294;18.598;2023-07-20T03:22:37;100106.97;;;14.83;79.96
57048;BME280;42934;54.294;18.598;2023-07-20T03:25:06;100110.56;;;14.96;79.45
57048;BME280;42934;54.294;18.598;2023-07-20T03:27:37;100110.13;;;15.04;79.08
57048;BME280;42934;54.294;18.598;2023-07-20T03:30:07;100112.66;;;15.06;79.18
57048;BME280;42934;54.294;18.598;2023-07-20T03:32:38;100102.22;;;15.18;78.78
57048;BME280;42934;54.294;18.598;2023-07-20T03:35:07;100115.63;;;15.15;78.63
57048;BME280;42934;54.294;18.598;2023-07-20T03:37:37;100117.78;;;15.09;78.91
57048;BME280;42934;54.294;18.598;2023-07-20T03:40:07;100111.38;;;15.27;78.60
57048;BME280;42934;54.294;18.598;2023-07-20T03:42:39;100118.34;;;15.14;79.19
57048;BME280;42934;54.294;18.598;2023-07-20T03:45:08;100118.28;;;15.30;78.89
57048;BME280;42934;54.294;18.598;2023-07-20T03:47:37;100121.09;;;15.12;79.27
57048;BME280;42934;54.294;18.598;2023-07-20T03:50:07;100118.19;;;15.31;78.71
57048;BME280;42934;54.294;18.598;2023-07-20T03:52:38;100119.13;;;15.30;78.53
57048;BME280;42934;54.294;18.598;2023-07-20T03:55:07;100121.78;;;15.30;78.49
57048;BME280;42934;54.294;18.598;2023-07-20T03:57:37;100117.63;;;15.40;78.31
57048;BME280;42934;54.294;18.598;2023-07-20T04:00:08;100117.41;;;15.29;79.10
57048;BME280;42934;54.294;18.598;2023-07-20T04:02:41;100111.47;;;15.40;78.38
57048;BME280;42934;54.294;18.598;2023-07-20T04:05:10;100120.28;;;15.55;78.46
57048;BME280;42934;54.294;18.598;2023-07-20T04:07:39;100117.81;;;15.37;79.07
57048;BME280;42934;54.294;18.598;2023-07-20T04:10:08;100113.66;;;15.48;78.85
57048;BME280;42934;54.294;18.598;2023-07-20T04:12:38;100116.59;;;15.43;79.41
57048;BME280;42934;54.294;18.598;2023-07-20T04:15:09;100112.44;;;15.67;78.70
57048;BME280;42934;54.294;18.598;2023-07-20T04:17:38;100115.00;;;15.69;78.67
57048;BME280;42934;54.294;18.598;2023-07-20T04:20:08;100119.44;;;15.54;79.27
57048;BME280;42934;54.294;18.598;2023-07-20T04:22:37;100119.44;;;15.83;78.33
57048;BME280;42934;54.294;18.598;2023-07-20T04:25:09;100115.97;;;15.68;78.67
57048;BME280;42934;54.294;18.598;2023-07-20T04:27:39;100110.63;;;15.82;78.28
57048;BME280;42934;54.294;18.598;2023-07-20T04:30:10;100114.50;;;15.48;79.83
57048;BME280;42934;54.294;18.598;2023-07-20T04:32:40;100119.50;;;15.67;78.73
57048;BME280;42934;54.294;18.598;2023-07-20T04:35:25;100115.38;;;15.77;78.51
57048;BME280;42934;54.294;18.598;2023-07-20T04:38:09;100126.25;;;15.73;78.65
57048;BME280;42934;54.294;18.598;2023-07-20T04:40:38;100122.09;;;15.83;78.75
57048;BME280;42934;54.294;18.598;2023-07-20T04:43:08;100127.66;;;15.93;78.15
57048;BME280;42934;54.294;18.598;2023-07-20T04:45:38;100132.13;;;15.78;78.55
57048;BME280;42934;54.294;18.598;2023-07-20T04:48:09;100135.31;;;15.54;79.60
57048;BME280;42934;54.294;18.598;2023-07-20T04:50:40;100145.50;;;15.46;80.01
57048;BME280;42934;54.294;18.598;2023-07-20T04:53:11;100135.13;;;15.86;78.45
57048;BME280;42934;54.294;18.598;2023-07-20T04:55:40;100145.03;;;15.82;78.72
57048;BME280;42934;54.294;18.598;2023-07-20T04:58:10;100135.59;;;15.78;79.10
57048;BME280;42934;54.294;18.598;2023-07-20T05:00:40;100142.13;;;15.73;79.57
57048;BME280;42934;54.294;18.598;2023-07-20T05:03:10;100136.94;;;15.71;79.62
57048;BME280;42934;54.294;18.598;2023-07-20T05:05:39;100137.78;;;15.86;78.70
57048;BME280;42934;54.294;18.598;2023-07-20T05:08:09;100142.13;;;15.87;78.96
57048;BME280;42934;54.294;18.598;2023-07-20T05:10:38;100138.72;;;15.85;78.94
57048;BME280;42934;54.294;18.598;2023-07-20T05:13:09;100135.59;;;15.78;79.86
57048;BME280;42934;54.294;18.598;2023-07-20T05:15:38;100135.16;;;15.72;80.04
57048;BME280;42934;54.294;18.598;2023-07-20T05:18:12;100131.06;;;15.95;78.85
57048;BME280;42934;54.294;18.598;2023-07-20T05:20:48;100124.53;;;16.00;79.02
57048;BME280;42934;54.294;18.598;2023-07-20T05:23:18;100134.91;;;16.03;78.39
57048;BME280;42934;54.294;18.598;2023-07-20T05:25:47;100126.66;;;16.08;78.37
57048;BME280;42934;54.294;18.598;2023-07-20T05:28:22;100125.63;;;16.10;78.07
57048;BME280;42934;54.294;18.598;2023-07-20T05:30:51;100129.06;;;15.98;78.36
57048;BME280;42934;54.294;18.598;2023-07-20T05:33:22;100128.63;;;16.19;77.88
57048;BME280;42934;54.294;18.598;2023-07-20T05:35:51;100129.09;;;16.25;77.53
57048;BME280;42934;54.294;18.598;2023-07-20T05:38:21;100128.53;;;16.20;77.55
57048;BME280;42934;54.294;18.598;2023-07-20T05:40:50;100134.75;;;16.33;77.12
57048;BME280;42934;54.294;18.598;2023-07-20T05:43:19;100136.38;;;16.49;76.66
57048;BME280;42934;54.294;18.598;2023-07-20T05:45:48;100137.84;;;16.40;77.20
57048;BME280;42934;54.294;18.598;2023-07-20T05:48:17;100132.50;;;16.54;76.71
57048;BME280;42934;54.294;18.598;2023-07-20T05:50:48;100136.09;;;16.53;75.95
57048;BME280;42934;54.294;18.598;2023-07-20T05:53:17;100141.28;;;16.55;76.11
57048;BME280;42934;54.294;18.598;2023-07-20T05:55:51;100140.28;;;16.43;76.77
57048;BME280;42934;54.294;18.598;2023-07-20T05:58:20;100145.66;;;16.56;76.34
57048;BME280;42934;54.294;18.598;2023-07-20T06:00:50;100144.97;;;16.52;76.65
57048;BME280;42934;54.294;18.598;2023-07-20T06:03:19;100134.66;;;16.62;76.63
57048;BME280;42934;54.294;18.598;2023-07-20T06:05:50;100140.66;;;16.51;77.14
57048;BME280;42934;54.294;18.598;2023-07-20T06:08:20;100141.63;;;16.63;76.37
57048;BME280;42934;54.294;18.598;2023-07-20T06:10:49;100140.72;;;16.50;77.56
57048;BME280;42934;54.294;18.598;2023-07-20T06:13:19;100139.53;;;16.68;77.18
57048;BME280;42934;54.294;18.598;2023-07-20T06:15:48;100135.16;;;16.67;77.44
57048;BME280;42934;54.294;18.598;2023-07-20T06:18:18;100133.06;;;16.72;77.49
57048;BME280;42934;54.294;18.598;2023-07-20T06:20:48;100127.63;;;16.88;76.17
57048;BME280;42934;54.294;18.598;2023-07-20T06:23:19;100132.63;;;16.93;76.33
57048;BME280;42934;54.294;18.598;2023-07-20T06:25:48;100126.16;;;16.97;75.79
57048;BME280;42934;54.294;18.598;2023-07-20T06:28:18;100127.50;;;16.77;76.84
57048;BME280;42934;54.294;18.598;2023-07-20T06:30:47;100131.91;;;17.03;76.69
57048;BME280;42934;54.294;18.598;2023-07-20T06:33:16;100140.38;;;16.96;76.12
57048;BME280;42934;54.294;18.598;2023-07-20T06:35:45;100138.81;;;17.06;76.05
57048;BME280;42934;54.294;18.598;2023-07-20T06:38:15;100131.81;;;17.18;75.96
57048;BME280;42934;54.294;18.598;2023-07-20T06:40:48;100141.97;;;16.98;76.17
57048;BME280;42934;54.294;18.598;2023-07-20T06:43:17;100138.88;;;16.92;76.43
57048;BME280;42934;54.294;18.598;2023-07-20T06:45:52;100144.19;;;16.92;77.12
57048;BME280;42934;54.294;18.598;2023-07-20T06:48:22;100143.91;;;17.22;75.33
57048;BME280;42934;54.294;18.598;2023-07-20T06:50:51;100140.00;;;17.15;76.03
57048;BME280;42934;54.294;18.598;2023-07-20T06:53:21;100135.94;;;17.09;76.60
57048;BME280;42934;54.294;18.598;2023-07-20T06:55:52;100132.34;;;17.10;76.29
57048;BME280;42934;54.294;18.598;2023-07-20T06:58:21;100128.50;;;17.14;76.73
57048;BME280;42934;54.294;18.598;2023-07-20T07:00:50;100134.97;;;17.23;75.55
57048;BME280;42934;54.294;18.598;2023-07-20T07:03:19;100134.78;;;17.13;75.65
57048;BME280;42934;54.294;18.598;2023-07-20T07:05:55;100141.34;;;17.20;75.83
57048;BME280;42934;54.294;18.598;2023-07-20T07:08:24;100128.75;;;17.37;74.22
57048;BME280;42934;54.294;18.598;2023-07-20T07:10:55;100132.53;;;17.20;75.31
57048;BME280;42934;54.294;18.598;2023-07-20T07:13:24;100137.13;;;17.31;75.27
57048;BME280;42934;54.294;18.598;2023-07-20T07:15:53;100125.44;;;17.46;74.87
57048;BME280;42934;54.294;18.598;2023-07-20T07:18:23;100130.63;;;17.60;73.70
57048;BME280;42934;54.294;18.598;2023-07-20T07:20:52;100143.59;;;17.39;74.30
57048;BME280;42934;54.294;18.598;2023-07-20T07:23:21;100123.63;;;17.59;73.44
57048;BME280;42934;54.294;18.598;2023-07-20T07:25:51;100125.44;;;17.33;74.59
57048;BME280;42934;54.294;18.598;2023-07-20T07:28:21;100116.81;;;17.55;73.65
57048;BME280;42934;54.294;18.598;2023-07-20T07:30:50;100117.03;;;17.52;72.50
57048;BME280;42934;54.294;18.598;2023-07-20T07:33:19;100107.94;;;17.56;70.96
57048;BME280;42934;54.294;18.598;2023-07-20T07:35:48;100117.56;;;17.70;69.79
57048;BME280;42934;54.294;18.598;2023-07-20T07:38:18;100110.97;;;17.76;69.03
57048;BME280;42934;54.294;18.598;2023-07-20T07:40:51;100112.28;;;17.44;70.54
57048;BME280;42934;54.294;18.598;2023-07-20T07:43:21;100118.00;;;17.51;70.87
57048;BME280;42934;54.294;18.598;2023-07-20T07:45:53;100126.88;;;17.76;70.56
57048;BME280;42934;54.294;18.598;2023-07-20T07:48:22;100118.72;;;17.91;70.19
57048;BME280;42934;54.294;18.598;2023-07-20T07:50:53;100118.53;;;17.82;70.94
57048;BME280;42934;54.294;18.598;2023-07-20T07:53:23;100122.81;;;18.08;70.11
57048;BME280;42934;54.294;18.598;2023-07-20T07:55:53;100112.84;;;18.12;69.92
57048;BME280;42934;54.294;18.598;2023-07-20T07:58:24;100122.09;;;18.30;70.41
57048;BME280;42934;54.294;18.598;2023-07-20T08:00:53;100118.59;;;18.30;70.33
57048;BME280;42934;54.294;18.598;2023-07-20T08:03:22;100113.16;;;18.55;70.12
57048;BME280;42934;54.294;18.598;2023-07-20T08:05:53;100117.34;;;18.71;68.28
57048;BME280;42934;54.294;18.598;2023-07-20T08:08:23;100123.25;;;18.98;66.22
57048;BME280;42934;54.294;18.598;2023-07-20T08:10:53;100124.94;;;18.99;65.41
57048;BME280;42934;54.294;18.598;2023-07-20T08:13:22;100116.72;;;19.02;65.83
57048;BME280;42934;54.294;18.598;2023-07-20T08:15:52;100120.28;;;19.25;64.56
57048;BME280;42934;54.294;18.598;2023-07-20T08:18:22;100114.47;;;19.20;65.12
57048;BME280;42934;54.294;18.598;2023-07-20T08:20:51;100105.06;;;19.39;63.03
57048;BME280;42934;54.294;18.598;2023-07-20T08:23:20;100108.47;;;19.63;62.47
57048;BME280;42934;54.294;18.598;2023-07-20T08:25:49;100110.31;;;19.74;60.75
57048;BME280;42934;54.294;18.598;2023-07-20T08:28:18;100108.69;;;19.60;59.86
57048;BME280;42934;54.294;18.598;2023-07-20T08:30:48;100115.00;;;19.82;59.97
57048;BME280;42934;54.294;18.598;2023-07-20T08:33:19;100112.22;;;19.94;60.11
57048;BME280;42934;54.294;18.598;2023-07-20T08:35:48;100115.25;;;20.01;58.97
57048;BME280;42934;54.294;18.598;2023-07-20T08:38:18;100110.88;;;20.00;57.62
57048;BME280;42934;54.294;18.598;2023-07-20T08:40:47;100111.59;;;19.91;58.16
57048;BME280;42934;54.294;18.598;2023-07-20T08:43:16;100107.34;;;20.00;58.84
57048;BME280;42934;54.294;18.598;2023-07-20T08:45:46;100108.91;;;20.13;57.61
57048;BME280;42934;54.294;18.598;2023-07-20T08:48:15;100105.44;;;19.90;58.17
57048;BME280;42934;54.294;18.598;2023-07-20T08:50:47;100104.66;;;20.22;57.62
57048;BME280;42934;54.294;18.598;2023-07-20T08:53:18;100113.34;;;20.35;57.61
57048;BME280;42934;54.294;18.598;2023-07-20T08:55:48;100109.19;;;20.54;57.07
57048;BME280;42934;54.294;18.598;2023-07-20T08:58:19;100110.78;;;20.34;56.31
57048;BME280;42934;54.294;18.598;2023-07-20T09:00:48;100104.75;;;20.64;56.32
57048;BME280;42934;54.294;18.598;2023-07-20T09:03:19;100107.06;;;20.90;56.23
57048;BME280;42934;54.294;18.598;2023-07-20T09:05:50;100110.13;;;20.85;56.07
57048;BME280;42934;54.294;18.598;2023-07-20T09:08:19;100109.81;;;20.99;53.38
57048;BME280;42934;54.294;18.598;2023-07-20T09:10:48;100102.13;;;20.85;53.30
57048;BME280;42934;54.294;18.598;2023-07-20T09:13:18;100113.28;;;20.58;53.83
57048;BME280;42934;54.294;18.598;2023-07-20T09:15:49;100099.78;;;20.38;55.24
57048;BME280;42934;54.294;18.598;2023-07-20T09:18:25;100112.31;;;20.15;56.13
57048;BME280;42934;54.294;18.598;2023-07-20T09:20:58;100106.56;;;20.31;56.78
57048;BME280;42934;54.294;18.598;2023-07-20T09:23:30;100107.47;;;20.53;56.95
57048;BME280;42934;54.294;18.598;2023-07-20T09:25:59;100102.09;;;20.64;55.95
57048;BME280;42934;54.294;18.598;2023-07-20T09:28:29;100092.06;;;20.89;53.09
57048;BME280;42934;54.294;18.598;2023-07-20T09:30:58;100097.25;;;20.69;53.50
57048;BME280;42934;54.294;18.598;2023-07-20T09:33:44;100096.47;;;20.78;52.77
57048;BME280;42934;54.294;18.598;2023-07-20T09:36:18;100097.69;;;20.74;52.88
57048;BME280;42934;54.294;18.598;2023-07-20T09:39:07;100095.72;;;20.76;54.06
57048;BME280;42934;54.294;18.598;2023-07-20T09:41:40;100096.50;;;20.67;54.59
57048;BME280;42934;54.294;18.598;2023-07-20T09:44:14;100085.09;;;20.97;53.81
57048;BME280;42934;54.294;18.598;2023-07-20T09:46:46;100087.09;;;20.84;54.01
57048;BME280;42934;54.294;18.598;2023-07-20T09:49:18;100084.09;;;20.98;53.57
57048;BME280;42934;54.294;18.598;2023-07-20T09:51:51;100089.44;;;20.98;53.16
57048;BME280;42934;54.294;18.598;2023-07-20T09:54:22;100094.06;;;20.96;53.43
57048;BME280;42934;54.294;18.598;2023-07-20T09:56:53;100095.16;;;20.73;54.51
57048;BME280;42934;54.294;18.598;2023-07-20T09:59:23;100095.94;;;20.84;53.53
57048;BME280;42934;54.294;18.598;2023-07-20T10:01:52;100124.59;;;20.39;61.31
57048;BME280;42934;54.294;18.598;2023-07-20T10:04:22;100137.16;;;19.82;65.40
57048;BME280;42934;54.294;18.598;2023-07-20T10:06:53;100135.31;;;19.38;66.98
57048;BME280;42934;54.294;18.598;2023-07-20T10:09:23;100134.84;;;18.86;70.11
57048;BME280;42934;54.294;18.598;2023-07-20T10:11:53;100126.09;;;19.19;66.91
57048;BME280;42934;54.294;18.598;2023-07-20T10:14:43;100110.38;;;18.81;67.75
57048;BME280;42934;54.294;18.598;2023-07-20T10:17:13;100110.09;;;18.49;69.46
57048;BME280;42934;54.294;18.598;2023-07-20T10:19:44;100111.88;;;18.37;72.88
57048;BME280;42934;54.294;18.598;2023-07-20T10:22:22;100117.34;;;18.47;70.81
57048;BME280;42934;54.294;18.598;2023-07-20T10:26:03;100122.22;;;18.77;69.33
57048;BME280;42934;54.294;18.598;2023-07-20T10:32:10;100110.84;;;19.21;65.48
57048;BME280;42934;54.294;18.598;2023-07-20T10:34:40;100122.34;;;18.75;71.42
57048;BME280;42934;54.294;18.598;2023-07-20T10:37:09;100115.41;;;19.08;67.77
57048;BME280;42934;54.294;18.598;2023-07-20T10:39:39;100116.88;;;19.01;69.28
57048;BME280;42934;54.294;18.598;2023-07-20T10:46:33;100116.09;;;18.88;70.62
57048;BME280;42934;54.294;18.598;2023-07-20T10:49:03;100125.81;;;19.11;68.63
57048;BME280;42934;54.294;18.598;2023-07-20T10:57:23;100129.41;;;18.39;69.10
57048;BME280;42934;54.294;18.598;2023-07-20T10:59:52;100126.91;;;18.25;69.76
57048;BME280;42934;54.294;18.598;2023-07-20T11:02:41;100122.34;;;18.14;70.69
57048;BME280;42934;54.294;18.598;2023-07-20T11:07:58;100128.59;;;17.89;72.87
57048;BME280;42934;54.294;18.598;2023-07-20T11:10:30;100135.06;;;17.98;73.25
57048;BME280;42934;54.294;18.598;2023-07-20T11:17:13;100147.41;;;17.74;71.68
57048;BME280;42934;54.294;18.598;2023-07-20T11:19:42;100151.22;;;17.69;72.03
57048;BME280;42934;54.294;18.598;2023-07-20T11:22:15;100157.50;;;17.56;73.53
57048;BME280;42934;54.294;18.598;2023-07-20T11:24:44;100144.34;;;17.54;73.47
57048;BME280;42934;54.294;18.598;2023-07-20T11:27:14;100147.44;;;17.48;74.18
57048;BME280;42934;54.294;18.598;2023-07-20T11:29:43;100149.84;;;17.64;74.26
57048;BME280;42934;54.294;18.598;2023-07-20T11:32:21;100153.16;;;17.42;75.21
57048;BME280;42934;54.294;18.598;2023-07-20T11:34:50;100152.72;;;17.74;74.87
57048;BME280;42934;54.294;18.598;2023-07-20T11:37:20;100147.41;;;17.74;75.13
57048;BME280;42934;54.294;18.598;2023-07-20T11:39:49;100149.97;;;17.49;77.32
57048;BME280;42934;54.294;18.598;2023-07-20T11:42:22;100154.00;;;17.68;76.36
57048;BME280;42934;54.294;18.598;2023-07-20T11:44:54;100153.66;;;17.73;76.62
57048;BME280;42934;54.294;18.598;2023-07-20T11:47:29;100148.97;;;17.76;76.87
57048;BME280;42934;54.294;18.598;2023-07-20T11:50:02;100155.16;;;17.89;76.72
57048;BME280;42934;54.294;18.598;2023-07-20T11:52:32;100154.38;;;18.13;75.81
57048;BME280;42934;54.294;18.598;2023-07-20T11:55:02;100151.38;;;18.17;75.40
57048;BME280;42934;54.294;18.598;2023-07-20T11:57:32;100162.22;;;18.14;76.59
57048;BME280;42934;54.294;18.598;2023-07-20T12:00:03;100151.25;;;18.19;76.75
57048;BME280;42934;54.294;18.598;2023-07-20T12:02:40;100149.31;;;18.58;76.46
57048;BME280;42934;54.294;18.598;2023-07-20T12:05:09;100148.94;;;18.75;75.06
57048;BME280;42934;54.294;18.598;2023-07-20T12:07:40;100149.63;;;19.01;76.49
57048;BME280;42934;54.294;18.598;2023-07-20T12:10:11;100151.63;;;19.22;77.09
57048;BME280;42934;54.294;18.598;2023-07-20T12:12:41;100148.13;;;19.21;77.33
57048;BME280;42934;54.294;18.598;2023-07-20T12:15:17;100149.25;;;19.41;75.13
57048;BME280;42934;54.294;18.598;2023-07-20T12:17:49;100147.78;;;19.37;74.36
57048;BME280;42934;54.294;18.598;2023-07-20T12:20:25;100149.25;;;19.41;72.83
57048;BME280;42934;54.294;18.598;2023-07-20T12:22:56;100138.84;;;19.61;64.61
57048;BME280;42934;54.294;18.598;2023-07-20T12:25:32;100136.78;;;19.53;61.27
57048;BME280;42934;54.294;18.598;2023-07-20T12:28:01;100122.50;;;19.43;61.88
57048;BME280;42934;54.294;18.598;2023-07-20T12:30:31;100126.97;;;19.42;62.66
57048;BME280;42934;54.294;18.598;2023-07-20T12:33:03;100141.88;;;19.45;63.58
57048;BME280;42934;54.294;18.598;2023-07-20T12:35:32;100132.78;;;19.59;64.04
57048;BME280;42934;54.294;18.598;2023-07-20T12:38:01;100130.75;;;19.85;62.97
57048;BME280;42934;54.294;18.598;2023-07-20T12:40:30;100135.38;;;19.83;63.73
57048;BME280;42934;54.294;18.598;2023-07-20T12:43:00;100135.38;;;19.83;62.15
57048;BME280;42934;54.294;18.598;2023-07-20T12:45:29;100136.66;;;20.00;61.53
57048;BME280;42934;54.294;18.598;2023-07-20T12:47:58;100137.50;;;20.11;60.86
57048;BME280;42934;54.294;18.598;2023-07-20T12:50:28;100133.72;;;20.25;61.23
57048;BME280;42934;54.294;18.598;2023-07-20T12:52:58;100127.31;;;20.28;59.92
57048;BME280;42934;54.294;18.598;2023-07-20T12:55:27;100120.72;;;20.32;60.80
57048;BME280;42934;54.294;18.598;2023-07-20T12:57:56;100123.59;;;20.62;59.63
57048;BME280;42934;54.294;18.598;2023-07-20T13:00:25;100123.06;;;20.69;57.68
57048;BME280;42934;54.294;18.598;2023-07-20T13:02:55;100129.56;;;20.76;57.52
57048;BME280;42934;54.294;18.598;2023-07-20T13:05:28;100129.25;;;20.69;56.46
57048;BME280;42934;54.294;18.598;2023-07-20T13:08:00;100132.34;;;20.85;56.20
57048;BME280;42934;54.294;18.598;2023-07-20T13:10:32;100125.75;;;21.10;55.35
57048;BME280;42934;54.294;18.598;2023-07-20T13:13:01;100122.63;;;20.84;53.77
57048;BME280;42934;54.294;18.598;2023-07-20T13:15:31;100122.38;;;20.87;53.72
57048;BME280;42934;54.294;18.598;2023-07-20T13:18:00;100113.25;;;20.90;53.39
57048;BME280;42934;54.294;18.598;2023-07-20T13:20:31;100112.28;;;20.91;52.79
57048;BME280;42934;54.294;18.598;2023-07-20T13:23:00;100109.50;;;20.93;52.76